sensor_id;sensor_type;location;lat;lon;timestamp;P1;durP1;ratioP1;P2;durP2;ratioP2
11197;SDS011;5655;48.744;9.162;2023-04-03T00:00:49;4.53;;;3.17;;
11197;SDS011;5655;48.744;9.162;2023-04-03T00:03:14;5.10;;;3.30;;
11197;SDS011;5655;48.744;9.162;2023-04-03T00:05:40;6.10;;;2.93;;
11197;SDS011;5655;48.744;9.162;2023-04-03T00:08:06;5.77;;;3.60;;
11197;SDS011;5655;48.744;9.162;2023-04-03T00:10:32;3.80;;;2.70;;
11197;SDS011;5655;48.744;9.162;2023-04-03T00:12:58;4.53;;;3.27;;
11197;SDS011;5655;48.744;9.162;2023-04-03T00:15:23;3.40;;;2.93;;
11197;SDS011;5655;48.744;9.162;2023-04-03T00:17:49;4.77;;;3.13;;
11197;SDS011;5655;48.744;9.162;2023-04-03T00:20:14;4.00;;;3.17;;
11197;SDS011;5655;48.744;9.162;2023-04-03T00:22:40;5.67;;;3.03;;
11197;SDS011;5655;48.744;9.162;2023-04-03T00:25:05;5.00;;;2.90;;
11197;SDS011;5655;48.744;9.162;2023-04-03T00:27:31;4.37;;;3.13;;
11197;SDS011;5655;48.744;9.162;2023-04-03T00:29:57;5.13;;;2.90;;
11197;SDS011;5655;48.744;9.162;2023-04-03T00:32:22;5.60;;;3.37;;
11197;SDS011;5655;48.744;9.162;2023-04-03T00:34:47;3.80;;;3.10;;
11197;SDS011;5655;48.744;9.162;2023-04-03T00:37:12;3.20;;;2.70;;
11197;SDS011;5655;48.744;9.162;2023-04-03T00:39:38;6.37;;;3.00;;
11197;SDS011;5655;48.744;9.162;2023-04-03T00:42:04;5.83;;;3.50;;
11197;SDS011;5655;48.744;9.162;2023-04-03T00:46:57;3.67;;;3.00;;
11197;SDS011;5655;48.744;9.162;2023-04-03T00:49:23;4.37;;;2.87;;
11197;SDS011;5655;48.744;9.162;2023-04-03T00:51:48;4.20;;;2.87;;
11197;SDS011;5655;48.744;9.162;2023-04-03T00:54:14;4.47;;;3.10;;
11197;SDS011;5655;48.744;9.162;2023-04-03T00:56:40;7.13;;;3.30;;
11197;SDS011;5655;48.744;9.162;2023-04-03T00:59:08;4.07;;;3.10;;
11197;SDS011;5655;48.744;9.162;2023-04-03T01:01:38;4.05;;;3.13;;
11197;SDS011;5655;48.744;9.162;2023-04-03T01:04:04;6.27;;;3.67;;
11197;SDS011;5655;48.744;9.162;2023-04-03T01:06:32;5.10;;;3.03;;
11197;SDS011;5655;48.744;9.162;2023-04-03T01:09:01;4.53;;;3.03;;
11197;SDS011;5655;48.744;9.162;2023-04-03T01:11:27;6.87;;;3.33;;
11197;SDS011;5655;48.744;9.162;2023-04-03T01:13:53;4.43;;;3.00;;
11197;SDS011;5655;48.744;9.162;2023-04-03T01:16:18;3.33;;;2.90;;
11197;SDS011;5655;48.744;9.162;2023-04-03T01:18:44;5.57;;;3.40;;
11197;SDS011;5655;48.744;9.162;2023-04-03T01:26:44;6.00;;;3.53;;
11197;SDS011;5655;48.744;9.162;2023-04-03T01:29:10;4.60;;;3.03;;
11197;SDS011;5655;48.744;9.162;2023-04-03T01:34:14;3.50;;;2.90;;
11197;SDS011;5655;48.744;9.162;2023-04-03T01:36:40;6.10;;;3.27;;
11197;SDS011;5655;48.744;9.162;2023-04-03T01:39:06;6.27;;;2.70;;
11197;SDS011;5655;48.744;9.162;2023-04-03T01:41:31;4.63;;;3.40;;
11197;SDS011;5655;48.744;9.162;2023-04-03T01:43:57;3.27;;;2.90;;
11197;SDS011;5655;48.744;9.162;2023-04-03T01:46:22;3.67;;;3.17;;
11197;SDS011;5655;48.744;9.162;2023-04-03T01:48:47;4.17;;;3.20;;
11197;SDS011;5655;48.744;9.162;2023-04-03T01:51:13;3.90;;;2.97;;
11197;SDS011;5655;48.744;9.162;2023-04-03T01:53:38;5.10;;;3.03;;
11197;SDS011;5655;48.744;9.162;2023-04-03T01:56:04;4.87;;;3.20;;
11197;SDS011;5655;48.744;9.162;2023-04-03T01:58:30;4.03;;;3.23;;
11197;SDS011;5655;48.744;9.162;2023-04-03T02:00:55;4.47;;;3.20;;
11197;SDS011;5655;48.744;9.162;2023-04-03T02:03:21;4.33;;;3.20;;
11197;SDS011;5655;48.744;9.162;2023-04-03T02:05:46;4.60;;;2.70;;
11197;SDS011;5655;48.744;9.162;2023-04-03T02:08:12;4.47;;;3.37;;
11197;SDS011;5655;48.744;9.162;2023-04-03T02:10:38;4.40;;;3.40;;
11197;SDS011;5655;48.744;9.162;2023-04-03T02:13:03;7.27;;;3.53;;
11197;SDS011;5655;48.744;9.162;2023-04-03T02:15:28;3.23;;;2.63;;
11197;SDS011;5655;48.744;9.162;2023-04-03T02:17:53;3.83;;;3.40;;
11197;SDS011;5655;48.744;9.162;2023-04-03T02:20:19;3.43;;;2.90;;
11197;SDS011;5655;48.744;9.162;2023-04-03T02:22:45;4.40;;;3.10;;
11197;SDS011;5655;48.744;9.162;2023-04-03T02:25:10;7.23;;;3.23;;
11197;SDS011;5655;48.744;9.162;2023-04-03T02:27:36;4.80;;;2.97;;
11197;SDS011;5655;48.744;9.162;2023-04-03T02:30:02;3.27;;;2.90;;
11197;SDS011;5655;48.744;9.162;2023-04-03T02:32:28;3.00;;;2.70;;
11197;SDS011;5655;48.744;9.162;2023-04-03T02:34:53;2.97;;;2.67;;
11197;SDS011;5655;48.744;9.162;2023-04-03T02:37:19;4.27;;;3.10;;
11197;SDS011;5655;48.744;9.162;2023-04-03T02:39:44;6.43;;;3.10;;
11197;SDS011;5655;48.744;9.162;2023-04-03T02:42:09;3.73;;;2.70;;
11197;SDS011;5655;48.744;9.162;2023-04-03T02:44:35;3.43;;;2.57;;
11197;SDS011;5655;48.744;9.162;2023-04-03T02:47:00;3.47;;;2.60;;
11197;SDS011;5655;48.744;9.162;2023-04-03T02:49:26;4.73;;;3.40;;
11197;SDS011;5655;48.744;9.162;2023-04-03T02:51:51;5.90;;;2.97;;
11197;SDS011;5655;48.744;9.162;2023-04-03T02:54:17;4.80;;;2.87;;
11197;SDS011;5655;48.744;9.162;2023-04-03T02:56:42;3.53;;;2.77;;
11197;SDS011;5655;48.744;9.162;2023-04-03T02:59:08;5.83;;;2.73;;
11197;SDS011;5655;48.744;9.162;2023-04-03T03:01:33;7.87;;;4.17;;
11197;SDS011;5655;48.744;9.162;2023-04-03T03:03:59;5.23;;;2.97;;
11197;SDS011;5655;48.744;9.162;2023-04-03T03:06:25;4.43;;;3.20;;
11197;SDS011;5655;48.744;9.162;2023-04-03T03:08:50;3.40;;;2.83;;
11197;SDS011;5655;48.744;9.162;2023-04-03T03:11:16;4.77;;;2.90;;
11197;SDS011;5655;48.744;9.162;2023-04-03T03:13:41;4.10;;;3.17;;
11197;SDS011;5655;48.744;9.162;2023-04-03T03:16:07;5.03;;;2.90;;
11197;SDS011;5655;48.744;9.162;2023-04-03T03:18:32;7.90;;;3.20;;
11197;SDS011;5655;48.744;9.162;2023-04-03T03:20:59;5.07;;;3.17;;
11197;SDS011;5655;48.744;9.162;2023-04-03T03:23:28;4.40;;;2.83;;
11197;SDS011;5655;48.744;9.162;2023-04-03T03:25:56;4.70;;;3.40;;
11197;SDS011;5655;48.744;9.162;2023-04-03T03:28:22;3.17;;;2.63;;
11197;SDS011;5655;48.744;9.162;2023-04-03T03:30:48;3.07;;;2.77;;
11197;SDS011;5655;48.744;9.162;2023-04-03T03:33:13;4.37;;;3.07;;
11197;SDS011;5655;48.744;9.162;2023-04-03T03:35:38;4.50;;;3.30;;
11197;SDS011;5655;48.744;9.162;2023-04-03T03:38:05;3.30;;;2.73;;
11197;SDS011;5655;48.744;9.162;2023-04-03T03:40:30;5.00;;;3.07;;
11197;SDS011;5655;48.744;9.162;2023-04-03T03:42:55;3.50;;;3.17;;
11197;SDS011;5655;48.744;9.162;2023-04-03T03:45:20;4.67;;;2.93;;
11197;SDS011;5655;48.744;9.162;2023-04-03T03:47:46;4.13;;;3.20;;
11197;SDS011;5655;48.744;9.162;2023-04-03T03:50:11;5.03;;;3.20;;
11197;SDS011;5655;48.744;9.162;2023-04-03T03:52:36;4.83;;;3.17;;
11197;SDS011;5655;48.744;9.162;2023-04-03T03:55:02;4.47;;;3.07;;
11197;SDS011;5655;48.744;9.162;2023-04-03T03:57:27;4.30;;;2.93;;
11197;SDS011;5655;48.744;9.162;2023-04-03T03:59:53;6.03;;;3.30;;
11197;SDS011;5655;48.744;9.162;2023-04-03T04:02:19;4.33;;;2.50;;
11197;SDS011;5655;48.744;9.162;2023-04-03T04:04:44;4.10;;;2.93;;
11197;SDS011;5655;48.744;9.162;2023-04-03T04:07:10;3.67;;;2.70;;
11197;SDS011;5655;48.744;9.162;2023-04-03T04:09:36;8.50;;;3.23;;
11197;SDS011;5655;48.744;9.162;2023-04-03T04:12:01;3.03;;;2.60;;
11197;SDS011;5655;48.744;9.162;2023-04-03T04:14:26;4.57;;;2.63;;
11197;SDS011;5655;48.744;9.162;2023-04-03T04:16:52;5.83;;;2.83;;
11197;SDS011;5655;48.744;9.162;2023-04-03T04:19:17;3.87;;;2.70;;
11197;SDS011;5655;48.744;9.162;2023-04-03T04:21:42;3.07;;;2.63;;
11197;SDS011;5655;48.744;9.162;2023-04-03T04:24:08;5.67;;;2.80;;
11197;SDS011;5655;48.744;9.162;2023-04-03T04:26:33;3.87;;;2.57;;
11197;SDS011;5655;48.744;9.162;2023-04-03T04:28:59;5.20;;;3.73;;
11197;SDS011;5655;48.744;9.162;2023-04-03T04:31:25;3.67;;;2.80;;
11197;SDS011;5655;48.744;9.162;2023-04-03T04:33:50;6.73;;;3.60;;
11197;SDS011;5655;48.744;9.162;2023-04-03T04:36:16;3.80;;;2.60;;
11197;SDS011;5655;48.744;9.162;2023-04-03T04:38:41;3.83;;;2.93;;
11197;SDS011;5655;48.744;9.162;2023-04-03T04:41:07;5.03;;;2.80;;
11197;SDS011;5655;48.744;9.162;2023-04-03T04:43:32;4.90;;;2.60;;
11197;SDS011;5655;48.744;9.162;2023-04-03T04:46:05;3.90;;;2.90;;
11197;SDS011;5655;48.744;9.162;2023-04-03T04:48:32;3.33;;;2.30;;
11197;SDS011;5655;48.744;9.162;2023-04-03T04:50:58;6.33;;;3.67;;
11197;SDS011;5655;48.744;9.162;2023-04-03T04:53:24;2.67;;;2.37;;
11197;SDS011;5655;48.744;9.162;2023-04-03T04:55:49;3.07;;;2.50;;
11197;SDS011;5655;48.744;9.162;2023-04-03T04:58:15;2.70;;;2.40;;
11197;SDS011;5655;48.744;9.162;2023-04-03T05:00:40;3.00;;;2.30;;
11197;SDS011;5655;48.744;9.162;2023-04-03T05:03:05;3.37;;;2.60;;
11197;SDS011;5655;48.744;9.162;2023-04-03T05:05:31;2.67;;;2.30;;
11197;SDS011;5655;48.744;9.162;2023-04-03T05:07:56;2.93;;;2.30;;
11197;SDS011;5655;48.744;9.162;2023-04-03T05:10:21;3.80;;;2.53;;
11197;SDS011;5655;48.744;9.162;2023-04-03T05:12:47;4.00;;;2.20;;
11197;SDS011;5655;48.744;9.162;2023-04-03T05:15:12;3.63;;;2.20;;
11197;SDS011;5655;48.744;9.162;2023-04-03T05:17:37;2.33;;;1.90;;
11197;SDS011;5655;48.744;9.162;2023-04-03T05:20:03;2.30;;;1.90;;
11197;SDS011;5655;48.744;9.162;2023-04-03T05:22:30;4.37;;;2.23;;
11197;SDS011;5655;48.744;9.162;2023-04-03T05:24:55;5.70;;;2.20;;
11197;SDS011;5655;48.744;9.162;2023-04-03T05:27:20;3.03;;;1.87;;
11197;SDS011;5655;48.744;9.162;2023-04-03T05:29:46;3.73;;;2.00;;
11197;SDS011;5655;48.744;9.162;2023-04-03T05:32:11;3.67;;;2.27;;
11197;SDS011;5655;48.744;9.162;2023-04-03T05:34:36;5.67;;;3.60;;
11197;SDS011;5655;48.744;9.162;2023-04-03T05:37:02;2.83;;;2.30;;
11197;SDS011;5655;48.744;9.162;2023-04-03T05:39:29;3.77;;;2.50;;
11197;SDS011;5655;48.744;9.162;2023-04-03T05:41:55;5.13;;;2.80;;
11197;SDS011;5655;48.744;9.162;2023-04-03T05:44:21;4.57;;;2.70;;
11197;SDS011;5655;48.744;9.162;2023-04-03T05:46:46;5.00;;;2.67;;
11197;SDS011;5655;48.744;9.162;2023-04-03T05:49:11;2.97;;;2.50;;
11197;SDS011;5655;48.744;9.162;2023-04-03T05:51:37;3.73;;;2.63;;
11197;SDS011;5655;48.744;9.162;2023-04-03T05:54:13;3.40;;;2.87;;
11197;SDS011;5655;48.744;9.162;2023-04-03T05:56:43;5.50;;;3.10;;
11197;SDS011;5655;48.744;9.162;2023-04-03T05:59:09;3.70;;;2.90;;
11197;SDS011;5655;48.744;9.162;2023-04-03T06:01:34;6.40;;;2.90;;
11197;SDS011;5655;48.744;9.162;2023-04-03T06:04:00;3.63;;;2.47;;
11197;SDS011;5655;48.744;9.162;2023-04-03T06:06:25;3.60;;;2.57;;
11197;SDS011;5655;48.744;9.162;2023-04-03T06:08:51;4.10;;;2.87;;
11197;SDS011;5655;48.744;9.162;2023-04-03T06:11:16;3.67;;;3.13;;
11197;SDS011;5655;48.744;9.162;2023-04-03T06:13:42;4.93;;;2.97;;
11197;SDS011;5655;48.744;9.162;2023-04-03T06:16:09;12.20;;;5.50;;
11197;SDS011;5655;48.744;9.162;2023-04-03T06:18:39;4.47;;;3.10;;
11197;SDS011;5655;48.744;9.162;2023-04-03T06:21:04;3.90;;;2.90;;
11197;SDS011;5655;48.744;9.162;2023-04-03T06:23:30;4.87;;;3.03;;
11197;SDS011;5655;48.744;9.162;2023-04-03T06:25:55;4.83;;;3.00;;
11197;SDS011;5655;48.744;9.162;2023-04-03T06:28:20;4.27;;;3.00;;
11197;SDS011;5655;48.744;9.162;2023-04-03T06:30:46;5.33;;;3.07;;
11197;SDS011;5655;48.744;9.162;2023-04-03T06:33:11;5.30;;;2.87;;
11197;SDS011;5655;48.744;9.162;2023-04-03T06:35:36;4.27;;;2.73;;
11197;SDS011;5655;48.744;9.162;2023-04-03T06:38:03;6.37;;;2.97;;
11197;SDS011;5655;48.744;9.162;2023-04-03T06:40:34;4.00;;;3.03;;
11197;SDS011;5655;48.744;9.162;2023-04-03T06:42:59;3.90;;;3.03;;
11197;SDS011;5655;48.744;9.162;2023-04-03T06:45:25;4.75;;;3.28;;
11197;SDS011;5655;48.744;9.162;2023-04-03T06:47:50;6.73;;;2.60;;
11197;SDS011;5655;48.744;9.162;2023-04-03T06:50:16;4.00;;;2.42;;
11197;SDS011;5655;48.744;9.162;2023-04-03T06:52:41;4.90;;;3.25;;
11197;SDS011;5655;48.744;9.162;2023-04-03T06:55:07;4.93;;;3.08;;
11197;SDS011;5655;48.744;9.162;2023-04-03T06:57:34;3.13;;;2.70;;
11197;SDS011;5655;48.744;9.162;2023-04-03T06:59:59;4.30;;;2.72;;
11197;SDS011;5655;48.744;9.162;2023-04-03T07:02:25;5.47;;;3.25;;
11197;SDS011;5655;48.744;9.162;2023-04-03T07:04:50;4.22;;;2.97;;
11197;SDS011;5655;48.744;9.162;2023-04-03T07:07:15;6.60;;;3.00;;
11197;SDS011;5655;48.744;9.162;2023-04-03T07:09:42;2.63;;;2.25;;
11197;SDS011;5655;48.744;9.162;2023-04-03T07:12:07;7.05;;;2.72;;
11197;SDS011;5655;48.744;9.162;2023-04-03T07:14:33;4.75;;;3.25;;
11197;SDS011;5655;48.744;9.162;2023-04-03T07:16:58;5.40;;;2.70;;
11197;SDS011;5655;48.744;9.162;2023-04-03T07:19:23;5.68;;;3.28;;
11197;SDS011;5655;48.744;9.162;2023-04-03T07:21:52;3.53;;;2.88;;
11197;SDS011;5655;48.744;9.162;2023-04-03T07:24:17;7.63;;;3.03;;
11197;SDS011;5655;48.744;9.162;2023-04-03T07:26:42;3.33;;;2.78;;
11197;SDS011;5655;48.744;9.162;2023-04-03T07:29:10;3.95;;;2.60;;
11197;SDS011;5655;48.744;9.162;2023-04-03T07:31:35;7.13;;;2.40;;
11197;SDS011;5655;48.744;9.162;2023-04-03T07:34:01;4.82;;;2.55;;
11197;SDS011;5655;48.744;9.162;2023-04-03T07:36:27;4.90;;;2.75;;
11197;SDS011;5655;48.744;9.162;2023-04-03T07:38:52;4.77;;;2.60;;
11197;SDS011;5655;48.744;9.162;2023-04-03T07:41:18;6.18;;;2.55;;
11197;SDS011;5655;48.744;9.162;2023-04-03T07:43:45;3.97;;;2.60;;
11197;SDS011;5655;48.744;9.162;2023-04-03T07:46:12;7.07;;;2.80;;
11197;SDS011;5655;48.744;9.162;2023-04-03T07:48:37;4.65;;;2.97;;
11197;SDS011;5655;48.744;9.162;2023-04-03T07:51:03;5.60;;;2.78;;
11197;SDS011;5655;48.744;9.162;2023-04-03T07:53:29;4.80;;;3.20;;
11197;SDS011;5655;48.744;9.162;2023-04-03T07:55:58;4.72;;;2.33;;
11197;SDS011;5655;48.744;9.162;2023-04-03T07:58:24;3.72;;;2.75;;
11197;SDS011;5655;48.744;9.162;2023-04-03T08:00:50;5.70;;;2.63;;
11197;SDS011;5655;48.744;9.162;2023-04-03T08:03:15;4.75;;;2.85;;
11197;SDS011;5655;48.744;9.162;2023-04-03T08:05:42;4.55;;;2.55;;
11197;SDS011;5655;48.744;9.162;2023-04-03T08:08:10;4.07;;;2.20;;
11197;SDS011;5655;48.744;9.162;2023-04-03T08:10:37;6.15;;;2.50;;
11197;SDS011;5655;48.744;9.162;2023-04-03T08:13:03;4.53;;;2.53;;
11197;SDS011;5655;48.744;9.162;2023-04-03T08:15:29;5.30;;;3.00;;
11197;SDS011;5655;48.744;9.162;2023-04-03T08:17:56;4.60;;;2.72;;
11197;SDS011;5655;48.744;9.162;2023-04-03T08:20:22;3.70;;;2.20;;
11197;SDS011;5655;48.744;9.162;2023-04-03T08:22:47;6.50;;;2.90;;
11197;SDS011;5655;48.744;9.162;2023-04-03T08:25:12;5.18;;;2.97;;
11197;SDS011;5655;48.744;9.162;2023-04-03T08:27:38;4.68;;;2.40;;
11197;SDS011;5655;48.744;9.162;2023-04-03T08:30:04;4.63;;;2.80;;
11197;SDS011;5655;48.744;9.162;2023-04-03T08:32:30;5.03;;;2.80;;
11197;SDS011;5655;48.744;9.162;2023-04-03T08:34:55;3.28;;;2.30;;
11197;SDS011;5655;48.744;9.162;2023-04-03T08:37:20;6.70;;;3.28;;
11197;SDS011;5655;48.744;9.162;2023-04-03T08:39:46;3.85;;;2.72;;
11197;SDS011;5655;48.744;9.162;2023-04-03T08:44:59;5.72;;;2.58;;
11197;SDS011;5655;48.744;9.162;2023-04-03T08:47:37;6.20;;;2.85;;
11197;SDS011;5655;48.744;9.162;2023-04-03T08:50:08;3.00;;;2.40;;
11197;SDS011;5655;48.744;9.162;2023-04-03T08:52:41;4.85;;;2.58;;
11197;SDS011;5655;48.744;9.162;2023-04-03T08:55:16;9.68;;;3.20;;
11197;SDS011;5655;48.744;9.162;2023-04-03T08:57:44;6.13;;;2.63;;
11197;SDS011;5655;48.744;9.162;2023-04-03T09:00:19;4.20;;;3.00;;
11197;SDS011;5655;48.744;9.162;2023-04-03T09:02:48;6.55;;;3.28;;
11197;SDS011;5655;48.744;9.162;2023-04-03T09:05:19;3.22;;;2.85;;
11197;SDS011;5655;48.744;9.162;2023-04-03T09:07:54;3.80;;;2.85;;
11197;SDS011;5655;48.744;9.162;2023-04-03T09:10:27;5.65;;;2.90;;
11197;SDS011;5655;48.744;9.162;2023-04-03T09:15:53;3.95;;;3.00;;
11197;SDS011;5655;48.744;9.162;2023-04-03T09:18:21;3.45;;;2.50;;
11197;SDS011;5655;48.744;9.162;2023-04-03T09:20:56;3.70;;;2.83;;
11197;SDS011;5655;48.744;9.162;2023-04-03T09:26:24;3.97;;;2.60;;
11197;SDS011;5655;48.744;9.162;2023-04-03T09:28:56;4.97;;;2.38;;
11197;SDS011;5655;48.744;9.162;2023-04-03T09:31:38;5.55;;;2.47;;
11197;SDS011;5655;48.744;9.162;2023-04-03T09:34:08;3.92;;;2.30;;
11197;SDS011;5655;48.744;9.162;2023-04-03T09:39:17;3.20;;;2.08;;
11197;SDS011;5655;48.744;9.162;2023-04-03T09:42:13;2.53;;;2.13;;
11197;SDS011;5655;48.744;9.162;2023-04-03T09:44:44;4.80;;;2.20;;
11197;SDS011;5655;48.744;9.162;2023-04-03T09:52:55;3.95;;;2.22;;
11197;SDS011;5655;48.744;9.162;2023-04-03T09:55:25;2.75;;;2.10;;
11197;SDS011;5655;48.744;9.162;2023-04-03T09:57:54;2.30;;;2.08;;
11197;SDS011;5655;48.744;9.162;2023-04-03T10:00:26;3.33;;;2.05;;
11197;SDS011;5655;48.744;9.162;2023-04-03T10:02:59;3.38;;;2.25;;
11197;SDS011;5655;48.744;9.162;2023-04-03T10:05:36;2.63;;;2.25;;
11197;SDS011;5655;48.744;9.162;2023-04-03T10:08:07;3.85;;;2.38;;
11197;SDS011;5655;48.744;9.162;2023-04-03T10:10:46;4.53;;;2.33;;
11197;SDS011;5655;48.744;9.162;2023-04-03T10:15:40;3.80;;;2.50;;
11197;SDS011;5655;48.744;9.162;2023-04-03T10:18:27;6.10;;;2.08;;
11197;SDS011;5655;48.744;9.162;2023-04-03T10:20:59;3.35;;;2.10;;
11197;SDS011;5655;48.744;9.162;2023-04-03T10:26:58;4.63;;;2.20;;
11197;SDS011;5655;48.744;9.162;2023-04-03T10:34:50;5.03;;;2.20;;
11197;SDS011;5655;48.744;9.162;2023-04-03T10:53:35;6.97;;;2.33;;
11197;SDS011;5655;48.744;9.162;2023-04-03T10:56:13;6.57;;;2.20;;
11197;SDS011;5655;48.744;9.162;2023-04-03T10:58:45;7.63;;;2.55;;
11197;SDS011;5655;48.744;9.162;2023-04-03T11:01:20;5.25;;;2.35;;
11197;SDS011;5655;48.744;9.162;2023-04-03T11:03:49;4.55;;;2.33;;
11197;SDS011;5655;48.744;9.162;2023-04-03T11:06:19;3.28;;;2.33;;
11197;SDS011;5655;48.744;9.162;2023-04-03T11:08:50;4.82;;;2.83;;
11197;SDS011;5655;48.744;9.162;2023-04-03T11:11:29;6.45;;;2.47;;
11197;SDS011;5655;48.744;9.162;2023-04-03T11:14:11;4.80;;;2.45;;
11197;SDS011;5655;48.744;9.162;2023-04-03T11:17:15;5.53;;;2.72;;
11197;SDS011;5655;48.744;9.162;2023-04-03T11:19:45;4.70;;;2.80;;
11197;SDS011;5655;48.744;9.162;2023-04-03T11:22:25;8.75;;;4.18;;
11197;SDS011;5655;48.744;9.162;2023-04-03T11:27:38;3.92;;;2.25;;
11197;SDS011;5655;48.744;9.162;2023-04-03T11:35:54;5.25;;;1.65;;
11197;SDS011;5655;48.744;9.162;2023-04-03T11:38:24;5.60;;;1.67;;
11197;SDS011;5655;48.744;9.162;2023-04-03T11:40:56;5.82;;;1.30;;
11197;SDS011;5655;48.744;9.162;2023-04-03T11:43:24;2.20;;;1.73;;
11197;SDS011;5655;48.744;9.162;2023-04-03T11:50:44;7.07;;;1.98;;
11197;SDS011;5655;48.744;9.162;2023-04-03T11:55:43;4.28;;;1.88;;
11197;SDS011;5655;48.744;9.162;2023-04-03T11:58:19;4.70;;;1.85;;
11197;SDS011;5655;48.744;9.162;2023-04-03T12:03:32;3.95;;;1.67;;
11197;SDS011;5655;48.744;9.162;2023-04-03T12:16:06;6.28;;;1.83;;
11197;SDS011;5655;48.744;9.162;2023-04-03T12:21:22;4.40;;;2.03;;
11197;SDS011;5655;48.744;9.162;2023-04-03T12:53:57;3.72;;;1.80;;
11197;SDS011;5655;48.744;9.162;2023-04-03T12:56:28;5.63;;;1.90;;
11197;SDS011;5655;48.744;9.162;2023-04-03T12:58:56;3.35;;;1.77;;
11197;SDS011;5655;48.744;9.162;2023-04-03T13:01:38;5.97;;;1.83;;
11197;SDS011;5655;48.744;9.162;2023-04-03T13:04:03;5.53;;;1.42;;
11197;SDS011;5655;48.744;9.162;2023-04-03T13:06:36;5.15;;;2.30;;
11197;SDS011;5655;48.744;9.162;2023-04-03T13:09:06;5.20;;;1.90;;
11197;SDS011;5655;48.744;9.162;2023-04-03T13:11:43;2.70;;;1.70;;
11197;SDS011;5655;48.744;9.162;2023-04-03T13:14:22;5.32;;;1.90;;
11197;SDS011;5655;48.744;9.162;2023-04-03T13:17:39;2.97;;;2.17;;
11197;SDS011;5655;48.744;9.162;2023-04-03T13:19:40;2.25;;;1.63;;
11197;SDS011;5655;48.744;9.162;2023-04-03T13:22:24;3.53;;;1.80;;
11197;SDS011;5655;48.744;9.162;2023-04-03T13:24:56;3.65;;;2.20;;
11197;SDS011;5655;48.744;9.162;2023-04-03T13:27:24;3.08;;;1.98;;
11197;SDS011;5655;48.744;9.162;2023-04-03T13:29:51;2.00;;;1.70;;
11197;SDS011;5655;48.744;9.162;2023-04-03T13:32:22;3.42;;;1.73;;
11197;SDS011;5655;48.744;9.162;2023-04-03T13:34:50;6.53;;;2.00;;
11197;SDS011;5655;48.744;9.162;2023-04-03T13:37:34;2.50;;;1.80;;
11197;SDS011;5655;48.744;9.162;2023-04-03T13:40:18;3.47;;;1.83;;
11197;SDS011;5655;48.744;9.162;2023-04-03T13:42:43;3.20;;;2.00;;
11197;SDS011;5655;48.744;9.162;2023-04-03T13:47:49;5.35;;;2.00;;
11197;SDS011;5655;48.744;9.162;2023-04-03T13:50:23;5.38;;;2.17;;
11197;SDS011;5655;48.744;9.162;2023-04-03T13:52:54;2.88;;;1.83;;
11197;SDS011;5655;48.744;9.162;2023-04-03T13:55:29;2.08;;;1.50;;
11197;SDS011;5655;48.744;9.162;2023-04-03T13:57:59;2.67;;;1.95;;
11197;SDS011;5655;48.744;9.162;2023-04-03T14:00:48;4.10;;;2.40;;
11197;SDS011;5655;48.744;9.162;2023-04-03T14:03:21;5.35;;;1.75;;
11197;SDS011;5655;48.744;9.162;2023-04-03T14:05:57;5.70;;;1.92;;
11197;SDS011;5655;48.744;9.162;2023-04-03T14:08:23;8.98;;;2.08;;
11197;SDS011;5655;48.744;9.162;2023-04-03T14:10:48;5.07;;;2.03;;
11197;SDS011;5655;48.744;9.162;2023-04-03T14:13:16;3.75;;;1.75;;
11197;SDS011;5655;48.744;9.162;2023-04-03T14:15:43;3.97;;;1.90;;
11197;SDS011;5655;48.744;9.162;2023-04-03T14:18:11;2.78;;;2.00;;
11197;SDS011;5655;48.744;9.162;2023-04-03T14:20:37;3.75;;;1.98;;
11197;SDS011;5655;48.744;9.162;2023-04-03T14:23:02;2.92;;;1.80;;
11197;SDS011;5655;48.744;9.162;2023-04-03T14:25:28;1.95;;;1.70;;
11197;SDS011;5655;48.744;9.162;2023-04-03T14:27:54;4.05;;;2.10;;
11197;SDS011;5655;48.744;9.162;2023-04-03T14:30:22;2.92;;;1.73;;
11197;SDS011;5655;48.744;9.162;2023-04-03T14:32:50;3.53;;;1.90;;
11197;SDS011;5655;48.744;9.162;2023-04-03T14:35:16;2.03;;;1.65;;
11197;SDS011;5655;48.744;9.162;2023-04-03T14:37:42;3.58;;;2.05;;
11197;SDS011;5655;48.744;9.162;2023-04-03T14:40:08;4.70;;;2.75;;
11197;SDS011;5655;48.744;9.162;2023-04-03T14:42:37;2.58;;;2.10;;
11197;SDS011;5655;48.744;9.162;2023-04-03T14:45:04;3.80;;;2.10;;
11197;SDS011;5655;48.744;9.162;2023-04-03T14:47:32;5.75;;;2.33;;
11197;SDS011;5655;48.744;9.162;2023-04-03T14:49:59;2.65;;;1.63;;
11197;SDS011;5655;48.744;9.162;2023-04-03T14:52:27;4.07;;;1.63;;
11197;SDS011;5655;48.744;9.162;2023-04-03T14:54:55;2.97;;;1.90;;
11197;SDS011;5655;48.744;9.162;2023-04-03T14:57:21;5.97;;;2.10;;
11197;SDS011;5655;48.744;9.162;2023-04-03T14:59:49;3.40;;;1.90;;
11197;SDS011;5655;48.744;9.162;2023-04-03T15:02:32;4.18;;;2.00;;
11197;SDS011;5655;48.744;9.162;2023-04-03T15:04:59;3.25;;;1.88;;
11197;SDS011;5655;48.744;9.162;2023-04-03T15:07:28;3.83;;;1.90;;
11197;SDS011;5655;48.744;9.162;2023-04-03T15:09:55;3.17;;;1.80;;
11197;SDS011;5655;48.744;9.162;2023-04-03T15:12:21;3.10;;;1.98;;
11197;SDS011;5655;48.744;9.162;2023-04-03T15:14:47;5.15;;;1.98;;
11197;SDS011;5655;48.744;9.162;2023-04-03T15:17:17;5.63;;;1.95;;
11197;SDS011;5655;48.744;9.162;2023-04-03T15:19:46;1.95;;;1.60;;
11197;SDS011;5655;48.744;9.162;2023-04-03T15:22:15;3.92;;;1.83;;
11197;SDS011;5655;48.744;9.162;2023-04-03T15:24:43;4.07;;;2.22;;
11197;SDS011;5655;48.744;9.162;2023-04-03T15:27:09;1.85;;;1.63;;
11197;SDS011;5655;48.744;9.162;2023-04-03T15:29:36;2.85;;;1.60;;
11197;SDS011;5655;48.744;9.162;2023-04-03T15:32:02;3.17;;;1.85;;
11197;SDS011;5655;48.744;9.162;2023-04-03T15:34:28;2.92;;;1.67;;
11197;SDS011;5655;48.744;9.162;2023-04-03T15:36:53;3.67;;;1.85;;
11197;SDS011;5655;48.744;9.162;2023-04-03T15:39:19;3.28;;;1.40;;
11197;SDS011;5655;48.744;9.162;2023-04-03T15:41:45;4.05;;;2.13;;
11197;SDS011;5655;48.744;9.162;2023-04-03T15:44:11;4.43;;;1.73;;
11197;SDS011;5655;48.744;9.162;2023-04-03T15:46:37;2.20;;;1.80;;
11197;SDS011;5655;48.744;9.162;2023-04-03T15:49:03;3.35;;;1.65;;
11197;SDS011;5655;48.744;9.162;2023-04-03T15:51:29;4.47;;;1.70;;
11197;SDS011;5655;48.744;9.162;2023-04-03T15:53:55;3.08;;;1.98;;
11197;SDS011;5655;48.744;9.162;2023-04-03T15:56:20;4.82;;;1.73;;
11197;SDS011;5655;48.744;9.162;2023-04-03T15:58:45;4.68;;;1.98;;
11197;SDS011;5655;48.744;9.162;2023-04-03T16:01:11;3.03;;;1.88;;
11197;SDS011;5655;48.744;9.162;2023-04-03T16:03:36;3.97;;;2.00;;
11197;SDS011;5655;48.744;9.162;2023-04-03T16:06:03;4.50;;;1.92;;
11197;SDS011;5655;48.744;9.162;2023-04-03T16:08:29;4.85;;;2.22;;
11197;SDS011;5655;48.744;9.162;2023-04-03T16:10:55;2.83;;;1.85;;
11197;SDS011;5655;48.744;9.162;2023-04-03T16:13:20;3.85;;;2.22;;
11197;SDS011;5655;48.744;9.162;2023-04-03T16:15:45;2.78;;;1.83;;
11197;SDS011;5655;48.744;9.162;2023-04-03T16:18:11;1.80;;;1.60;;
11197;SDS011;5655;48.744;9.162;2023-04-03T16:20:38;3.22;;;1.70;;
11197;SDS011;5655;48.744;9.162;2023-04-03T16:23:03;2.97;;;2.00;;
11197;SDS011;5655;48.744;9.162;2023-04-03T16:25:29;3.20;;;1.80;;
11197;SDS011;5655;48.744;9.162;2023-04-03T16:27:56;2.83;;;1.65;;
11197;SDS011;5655;48.744;9.162;2023-04-03T16:30:21;2.83;;;1.77;;
11197;SDS011;5655;48.744;9.162;2023-04-03T16:32:46;2.25;;;1.45;;
11197;SDS011;5655;48.744;9.162;2023-04-03T16:35:12;5.20;;;1.52;;
11197;SDS011;5655;48.744;9.162;2023-04-03T16:37:38;2.90;;;1.60;;
11197;SDS011;5655;48.744;9.162;2023-04-03T16:40:04;2.15;;;1.63;;
11197;SDS011;5655;48.744;9.162;2023-04-03T16:42:31;2.53;;;1.73;;
11197;SDS011;5655;48.744;9.162;2023-04-03T16:44:57;2.10;;;1.58;;
11197;SDS011;5655;48.744;9.162;2023-04-03T16:47:24;2.53;;;1.58;;
11197;SDS011;5655;48.744;9.162;2023-04-03T16:49:50;2.88;;;1.60;;
11197;SDS011;5655;48.744;9.162;2023-04-03T16:52:15;3.20;;;1.80;;
11197;SDS011;5655;48.744;9.162;2023-04-03T16:54:41;3.38;;;1.67;;
11197;SDS011;5655;48.744;9.162;2023-04-03T16:57:06;3.38;;;1.75;;
11197;SDS011;5655;48.744;9.162;2023-04-03T16:59:31;3.65;;;2.05;;
11197;SDS011;5655;48.744;9.162;2023-04-03T17:01:57;3.70;;;1.88;;